Time;durP1;ratioP1;P1;durP2;ratioP2;P2;SDS_P1;SDS_P2;PMS_P1;PMS_P2;Temp;Humidity;BMP_temperature;BMP_pressure;BME280_temperature;BME280_humidity;BME280_pressure;Samples;Min_cycle;Max_cycle;Signal;HPM_P1;HPM_P2
2023/06/18 00:01:27;;;;;;;1.33;0.93;;;22.20;54.10;;;;;;8429341;28;20036;-55
2023/06/18 00:05:27;;;;;;;1.13;0.93;;;22.20;54.10;;;;;;8429373;28;20036;-55
2023/06/18 00:09:28;;;;;;;1.13;1.02;;;22.20;54.10;;;;;;8429068;28;20414;-55
2023/06/18 00:13:29;;;;;;;0.90;0.90;;;22.20;54.10;;;;;;8429173;28;20385;-54
2023/06/18 00:17:30;;;;;;;0.82;0.82;;;22.20;54.10;;;;;;8428818;28;20396;-55
2023/06/18 00:21:31;;;;;;;0.88;0.88;;;22.20;54.10;;;;;;8428507;28;20028;-54
2023/06/18 00:25:31;;;;;;;1.08;0.95;;;22.20;54.10;;;;;;8428571;28;20060;-54
2023/06/18 00:29:32;;;;;;;1.35;0.95;;;22.20;54.10;;;;;;8455869;28;20039;-54
2023/06/18 00:33:33;;;;;;;0.80;0.80;;;22.20;54.10;;;;;;8462069;28;20473;-54
2023/06/18 00:37:34;;;;;;;1.05;0.90;;;22.20;54.10;;;;;;8462136;28;20668;-54
2023/06/18 00:41:34;;;;;;;;;;;22.20;54.10;;;;;;8462302;28;20633;-54
2023/06/18 00:45:35;;;;;;;0.97;0.87;;;22.20;54.10;;;;;;8461752;28;19908;-55
2023/06/18 00:49:36;;;;;;;1.05;0.80;;;22.20;54.10;;;;;;8461910;28;20289;-55
2023/06/18 00:53:37;;;;;;;1.10;1.00;;;22.20;54.20;;;;;;8443717;28;20024;-55
2023/06/18 00:57:41;;;;;;;;;;;22.20;54.20;;;;;;8451376;28;20035;-55
2023/06/18 01:01:41;;;;;;;0.80;0.80;;;22.20;54.20;;;;;;8427491;28;19904;-53
2023/06/18 01:05:52;;;;;;;0.70;0.70;;;22.20;54.20;;;;;;8427435;28;20032;-55
2023/06/18 01:09:53;;;;;;;1.05;0.95;;;22.20;54.20;;;;;;8427438;28;20089;-54
2023/06/18 01:13:54;;;;;;;0.80;0.80;;;22.20;54.20;;;;;;8426867;28;20016;-54
2023/06/18 01:17:57;;;;;;;0.80;0.80;;;22.20;54.20;;;;;;8427121;28;20032;-55
2023/06/18 01:22:06;;;;;;;0.82;0.82;;;22.20;54.20;;;;;;8427076;28;20120;-54
2023/06/18 01:26:07;;;;;;;1.23;1.13;;;22.20;54.20;;;;;;8426878;28;20040;-55
2023/06/18 01:30:12;;;;;;;0.82;0.70;;;22.20;54.20;;;;;;8427502;28;20085;-55
2023/06/18 01:34:13;;;;;;;1.00;0.90;;;22.20;54.20;;;;;;8426798;28;20056;-54
2023/06/18 01:38:19;;;;;;;;;;;22.20;54.20;;;;;;8409761;28;20030;-54
2023/06/18 01:42:24;;;;;;;1.10;1.00;;;22.20;54.20;;;;;;8426822;28;19904;-55
2023/06/18 01:46:28;;;;;;;0.85;0.82;;;22.20;54.20;;;;;;8426352;28;20482;-54
2023/06/18 01:50:32;;;;;;;1.02;0.82;;;22.20;54.20;;;;;;8426405;28;20024;-55
2023/06/18 01:54:33;;;;;;;0.82;0.82;;;22.20;54.20;;;;;;8426378;28;20035;-54
2023/06/18 01:58:36;;;;;;;1.05;0.85;;;22.20;54.10;;;;;;8413032;28;20036;-55
2023/06/18 02:02:36;;;;;;;0.85;0.85;;;22.20;54.20;;;;;;8433300;28;20536;-55
2023/06/18 02:06:37;;;;;;;0.70;0.70;;;22.20;54.20;;;;;;8414930;28;20597;-55
2023/06/18 02:10:37;;;;;;;1.10;1.00;;;22.20;54.20;;;;;;8432893;28;20389;-55
2023/06/18 02:14:38;;;;;;;0.90;0.90;;;22.20;54.10;;;;;;8432830;28;20036;-54
2023/06/18 02:18:40;;;;;;;1.38;1.27;;;22.20;54.20;;;;;;8414348;28;20036;-55
2023/06/18 02:22:40;;;;;;;1.25;1.15;;;22.20;54.70;;;;;;8432767;28;20363;-54
2023/06/18 02:26:42;;;;;;;1.23;1.05;;;22.20;54.20;;;;;;8433042;27;20504;-55
2023/06/18 02:30:43;;;;;;;0.90;0.88;;;22.20;54.20;;;;;;8432186;28;20191;-55
2023/06/18 02:34:43;;;;;;;1.02;0.93;;;22.10;54.10;;;;;;8432080;28;20107;-55
2023/06/18 02:38:44;;;;;;;0.80;0.80;;;22.10;54.20;;;;;;8432763;28;20036;-55
2023/06/18 02:42:48;;;;;;;1.25;1.15;;;22.10;54.20;;;;;;8432118;28;20118;-55
2023/06/18 02:46:48;;;;;;;1.10;1.00;;;22.10;54.20;;;;;;8431623;28;20047;-53
2023/06/18 02:50:49;;;;;;;0.93;0.85;;;22.10;54.20;;;;;;8413393;28;20032;-54
2023/06/18 02:54:49;;;;;;;0.90;0.90;;;22.10;54.20;;;;;;8431730;28;20036;-55
2023/06/18 02:58:55;;;;;;;1.10;1.00;;;22.20;54.20;;;;;;8431837;27;20036;-54
2023/06/18 03:02:56;;;;;;;1.13;0.90;;;22.10;54.20;;;;;;8431384;28;20028;-54
2023/06/18 03:07:00;;;;;;;1.30;1.15;;;22.20;54.20;;;;;;8431603;28;20131;-55
2023/06/18 03:11:00;;;;;;;0.98;0.93;;;22.20;54.20;;;;;;8430436;28;20071;-54
2023/06/18 03:15:01;;;;;;;0.70;0.70;;;22.10;54.10;;;;;;8430560;28;20078;-55
2023/06/18 03:19:02;;;;;;;0.80;0.80;;;22.20;54.20;;;;;;8430904;28;20111;-54
2023/06/18 03:23:03;;;;;;;0.70;0.70;;;22.20;54.20;;;;;;8430708;28;20520;-54
2023/06/18 03:27:04;;;;;;;0.70;0.70;;;22.20;54.20;;;;;;8431790;28;20435;-54
2023/06/18 03:31:06;;;;;;;1.13;1.02;;;22.20;54.20;;;;;;8430360;28;20108;-55
2023/06/18 03:35:08;;;;;;;0.90;0.90;;;22.20;54.20;;;;;;8430221;28;20548;-55
2023/06/18 03:39:09;;;;;;;0.80;0.80;;;22.20;54.20;;;;;;8430107;28;20036;-55
2023/06/18 03:43:10;;;;;;;0.90;0.90;;;22.10;54.20;;;;;;8430233;28;20039;-54
2023/06/18 03:47:10;;;;;;;0.95;0.90;;;22.20;54.20;;;;;;8429631;28;20032;-55
2023/06/18 03:51:11;;;;;;;1.00;0.90;;;22.20;54.20;;;;;;8429900;28;20068;-55
2023/06/18 03:55:12;;;;;;;1.35;1.13;;;22.20;54.20;;;;;;8429520;28;20028;-55
2023/06/18 03:59:13;;;;;;;0.98;0.85;;;22.20;54.20;;;;;;8430346;27;20036;-54
2023/06/18 04:03:13;;;;;;;1.23;1.05;;;22.20;54.20;;;;;;8429492;28;20482;-55
2023/06/18 04:07:14;;;;;;;0.90;0.90;;;22.20;54.20;;;;;;8428861;28;20048;-55
2023/06/18 04:11:15;;;;;;;1.30;1.20;;;22.10;54.20;;;;;;8394373;28;20123;-55
2023/06/18 04:15:15;;;;;;;1.00;0.85;;;22.10;54.20;;;;;;8428957;28;20043;-54
2023/06/18 04:19:16;;;;;;;1.10;1.00;;;22.10;54.20;;;;;;8428306;28;20040;-55
2023/06/18 04:23:17;;;;;;;0.88;0.88;;;22.10;54.20;;;;;;8428737;28;20036;-55
2023/06/18 04:27:17;;;;;;;1.05;0.73;;;22.10;54.20;;;;;;8429269;27;20058;-54
2023/06/18 04:31:18;;;;;;;1.05;0.95;;;22.10;54.20;;;;;;8428408;28;20480;-55
2023/06/18 04:35:19;;;;;;;1.17;1.08;;;22.10;54.20;;;;;;8428608;28;20024;-55
2023/06/18 04:39:20;;;;;;;0.88;0.88;;;22.10;54.20;;;;;;8443894;28;20028;-54
2023/06/18 04:43:20;;;;;;;0.80;0.80;;;22.10;54.20;;;;;;8428015;28;20078;-54
2023/06/18 04:47:21;;;;;;;0.88;0.88;;;22.10;54.20;;;;;;8427733;28;20048;-54
2023/06/18 04:51:23;;;;;;;1.10;1.00;;;22.10;54.20;;;;;;8427815;28;20051;-54
2023/06/18 04:55:23;;;;;;;0.93;0.82;;;22.10;54.20;;;;;;8427911;28;20542;-54
2023/06/18 04:59:24;;;;;;;0.77;0.77;;;22.10;54.20;;;;;;8428316;28;20414;-55
2023/06/18 05:03:25;;;;;;;0.93;0.93;;;22.10;54.20;;;;;;8409396;28;20093;-55
2023/06/18 05:07:26;;;;;;;0.88;0.88;;;22.20;54.20;;;;;;8427250;28;20149;-55
2023/06/18 05:11:26;;;;;;;1.15;0.90;;;22.10;54.20;;;;;;8427368;28;20389;-55
2023/06/18 05:15:28;;;;;;;0.90;0.90;;;22.10;54.20;;;;;;8409804;28;20093;-54
2023/06/18 05:19:29;;;;;;;0.85;0.85;;;22.20;54.20;;;;;;8427049;28;20162;-55
2023/06/18 05:23:30;;;;;;;1.08;0.98;;;22.10;54.20;;;;;;8427081;28;20036;-55
2023/06/18 05:27:30;;;;;;;1.10;1.00;;;22.10;54.20;;;;;;8428124;28;20057;-55
2023/06/18 05:31:31;;;;;;;1.08;0.98;;;22.10;54.70;;;;;;8426235;28;20042;-55
2023/06/18 05:35:32;;;;;;;1.30;0.90;;;22.10;54.20;;;;;;8427157;28;20111;-55
2023/06/18 05:39:32;;;;;;;0.98;0.88;;;22.10;54.20;;;;;;8426615;28;20090;-55
2023/06/18 05:43:33;;;;;;;0.80;0.70;;;22.10;54.20;;;;;;8426882;28;20085;-55
2023/06/18 05:47:33;;;;;;;1.15;1.00;;;22.10;54.20;;;;;;8426713;28;20115;-55
2023/06/18 05:51:34;;;;;;;1.00;0.90;;;22.10;54.30;;;;;;8426519;28;20021;-55
2023/06/18 05:55:35;;;;;;;1.30;1.15;;;22.10;54.30;;;;;;8427508;28;20026;-55
2023/06/18 05:59:35;;;;;;;0.77;0.77;;;22.10;54.30;;;;;;8427144;28;20047;-55
2023/06/18 06:03:36;;;;;;;0.80;0.80;;;22.10;54.30;;;;;;8426765;28;20039;-54
2023/06/18 06:07:37;;;;;;;1.38;1.27;;;22.10;54.30;;;;;;8426440;28;20052;-54
2023/06/18 06:11:37;;;;;;;0.90;0.90;;;22.10;54.30;;;;;;8426281;28;20405;-55
2023/06/18 06:15:38;;;;;;;1.00;1.00;;;22.10;54.30;;;;;;8426400;28;20470;-55
2023/06/18 06:19:39;;;;;;;0.80;0.80;;;22.10;54.80;;;;;;8426406;28;20035;-54
2023/06/18 06:23:40;;;;;;;1.15;1.05;;;22.10;54.30;;;;;;8426423;28;20047;-54
2023/06/18 06:27:42;;;;;;;0.93;0.90;;;22.10;54.30;;;;;;8426767;28;20024;-55
2023/06/18 06:31:43;;;;;;;0.93;0.93;;;22.10;54.30;;;;;;8407756;28;20431;-55
2023/06/18 06:35:44;;;;;;;1.10;1.00;;;22.10;54.30;;;;;;8426037;28;20173;-55
2023/06/18 06:39:45;;;;;;;;;;;22.10;54.30;;;;;;8426191;28;20493;-54
2023/06/18 06:43:45;;;;;;;0.97;0.90;;;22.10;54.30;;;;;;8428350;28;20289;-55
2023/06/18 06:47:47;;;;;;;0.95;0.95;;;22.10;54.30;;;;;;8413653;28;20044;-55
2023/06/18 06:51:48;;;;;;;0.95;0.90;;;22.10;54.30;;;;;;8431893;28;20024;-55
2023/06/18 06:55:48;;;;;;;;;;;22.10;54.30;;;;;;8432112;28;20039;-55
2023/06/18 06:59:50;;;;;;;0.90;0.90;;;22.10;54.30;;;;;;8432737;27;19915;-55
2023/06/18 07:03:50;;;;;;;;;;;22.10;54.30;;;;;;8431920;28;20032;-54
2023/06/18 07:07:51;;;;;;;0.70;0.70;;;22.10;54.30;;;;;;8431171;28;19920;-54
2023/06/18 07:11:51;;;;;;;0.95;0.93;;;22.10;54.30;;;;;;8431203;28;20540;-55
2023/06/18 07:15:52;;;;;;;1.08;0.90;;;22.10;54.30;;;;;;8413032;28;20031;-54
2023/06/18 07:19:54;;;;;;;0.88;0.88;;;22.10;54.30;;;;;;8431127;28;20035;-54
2023/06/18 07:23:55;;;;;;;0.90;0.90;;;22.10;54.30;;;;;;8430551;28;20036;-55
2023/06/18 07:27:56;;;;;;;0.80;0.80;;;22.10;54.30;;;;;;8431654;27;20028;-55
2023/06/18 07:31:56;;;;;;;0.90;0.90;;;22.10;54.30;;;;;;8430207;28;20511;-55
2023/06/18 07:35:57;;;;;;;1.05;0.95;;;22.10;54.30;;;;;;8430443;28;20032;-54
2023/06/18 07:39:58;;;;;;;0.75;0.75;;;22.10;54.40;;;;;;8430438;28;20032;-55
2023/06/18 07:43:58;;;;;;;1.00;0.90;;;22.10;54.40;;;;;;8429827;28;20087;-55
2023/06/18 07:47:59;;;;;;;0.95;0.95;;;22.10;54.40;;;;;;8430075;28;20491;-54
2023/06/18 07:51:59;;;;;;;1.00;0.90;;;22.10;54.40;;;;;;8429889;28;20027;-55
2023/06/18 07:56:00;;;;;;;1.02;1.00;;;22.10;54.40;;;;;;8429107;28;20024;-54
2023/06/18 08:00:01;;;;;;;1.30;1.00;;;22.10;54.30;;;;;;8430550;28;20028;-54
2023/06/18 08:04:02;;;;;;;0.93;0.80;;;22.10;54.30;;;;;;8429576;28;20039;-54
2023/06/18 08:08:02;;;;;;;1.10;1.00;;;22.10;54.40;;;;;;8428803;28;20567;-54
2023/06/18 08:12:03;;;;;;;1.02;0.93;;;22.10;54.30;;;;;;8429451;28;20028;-55
2023/06/18 08:16:05;;;;;;;;;;;22.10;54.30;;;;;;8429579;28;20034;-54
2023/06/18 08:20:06;;;;;;;1.23;1.13;;;22.10;54.30;;;;;;8429375;28;20250;-55
2023/06/18 08:24:07;;;;;;;0.98;0.88;;;22.10;54.30;;;;;;8410640;28;20670;-55
2023/06/18 08:28:07;;;;;;;0.70;0.70;;;22.10;54.40;;;;;;8429557;27;20174;-55
2023/06/18 08:32:08;;;;;;;1.10;1.00;;;22.10;54.30;;;;;;8428599;28;20615;-54
2023/06/18 08:36:09;;;;;;;0.73;0.73;;;22.10;54.30;;;;;;8428542;28;20081;-54
2023/06/18 08:40:13;;;;;;;0.80;0.70;;;22.10;54.30;;;;;;8428156;28;20028;-55
2023/06/18 08:44:14;;;;;;;1.23;1.13;;;22.10;54.80;;;;;;8428262;28;20024;-55
2023/06/18 08:48:15;;;;;;;1.25;1.15;;;22.10;54.30;;;;;;8427952;28;20543;-54
2023/06/18 08:52:19;;;;;;;0.70;0.70;;;22.10;54.30;;;;;;8427936;28;20032;-55
2023/06/18 08:56:22;;;;;;;1.05;0.95;;;22.10;54.30;;;;;;8428235;28;20548;-55
2023/06/18 09:00:22;;;;;;;1.10;1.00;;;22.10;54.30;;;;;;8427533;28;20032;-55
2023/06/18 09:04:24;;;;;;;0.82;0.80;;;22.10;54.30;;;;;;8427685;28;20036;-55
2023/06/18 09:08:26;;;;;;;1.10;0.82;;;22.10;54.30;;;;;;8408968;28;20134;-54
2023/06/18 09:12:26;;;;;;;0.82;0.82;;;22.10;54.30;;;;;;8409592;28;20532;-55
2023/06/18 09:16:27;;;;;;;0.90;0.90;;;22.10;54.40;;;;;;8427305;28;20397;-55
2023/06/18 09:20:29;;;;;;;1.08;0.90;;;22.10;54.40;;;;;;8427366;28;20039;-55
2023/06/18 09:24:33;;;;;;;0.90;0.80;;;22.10;54.40;;;;;;8426903;28;20478;-55
2023/06/18 09:28:36;;;;;;;0.70;0.70;;;22.10;54.40;;;;;;8427275;28;20439;-55
2023/06/18 09:32:47;;;;;;;1.08;0.98;;;22.10;54.30;;;;;;8427081;28;20642;-55
2023/06/18 09:36:49;;;;;;;1.10;1.00;;;22.10;54.30;;;;;;8426776;28;20473;-54
2023/06/18 09:40:50;;;;;;;1.10;1.00;;;22.10;54.30;;;;;;8426996;28;20153;-55
2023/06/18 09:44:53;;;;;;;0.88;0.88;;;22.10;54.30;;;;;;8426636;28;20039;-54
2023/06/18 09:48:53;;;;;;;0.90;0.90;;;22.10;54.30;;;;;;8426787;28;20048;-55
2023/06/18 09:52:54;;;;;;;0.75;0.75;;;22.10;54.20;;;;;;8426790;28;20024;-54
2023/06/18 09:57:00;;;;;;;1.00;0.90;;;22.10;54.30;;;;;;8427257;28;20036;-54
2023/06/18 10:01:03;;;;;;;0.75;0.75;;;22.20;54.30;;;;;;8426471;28;20119;-54
2023/06/18 10:05:04;;;;;;;1.00;1.00;;;22.10;54.30;;;;;;8426646;28;20036;-55
2023/06/18 10:09:07;;;;;;;1.27;1.00;;;22.10;54.20;;;;;;8426420;28;20681;-54
2023/06/18 10:13:11;;;;;;;0.82;0.82;;;22.10;54.80;;;;;;8426182;28;20481;-55
2023/06/18 10:17:43;;;;;;;0.80;0.80;;;22.10;54.20;;;;;;8426426;28;20024;-55
2023/06/18 10:21:56;;;;;;;0.80;0.80;;;22.10;54.20;;;;;;8430137;28;20040;-54
2023/06/18 10:25:58;;;;;;;1.00;1.00;;;22.10;54.20;;;;;;8432509;28;20036;-55
2023/06/18 10:29:59;;;;;;;0.80;0.80;;;22.10;54.30;;;;;;8433393;27;20512;-55
2023/06/18 10:34:00;;;;;;;0.70;0.70;;;22.10;54.20;;;;;;8432434;28;20032;-54
2023/06/18 10:38:01;;;;;;;0.80;0.80;;;22.10;54.20;;;;;;8432251;28;20085;-54
2023/06/18 10:42:12;;;;;;;0.80;0.80;;;22.10;54.20;;;;;;8432078;28;20112;-55
2023/06/18 10:46:14;;;;;;;0.97;0.97;;;22.20;54.30;;;;;;8431993;28;20482;-55
2023/06/18 10:50:16;;;;;;;0.80;0.80;;;22.10;54.20;;;;;;8414004;28;20036;-55
2023/06/18 10:54:29;;;;;;;1.05;0.90;;;22.10;54.30;;;;;;8431806;28;20685;-54
2023/06/18 10:58:37;;;;;;;1.20;1.10;;;22.10;54.30;;;;;;8432767;27;20031;-55
2023/06/18 11:02:39;;;;;;;0.80;0.80;;;22.10;54.30;;;;;;8431433;28;20447;-55
2023/06/18 11:06:39;;;;;;;0.70;0.70;;;22.10;54.30;;;;;;8431083;28;20052;-54
2023/06/18 11:10:48;;;;;;;1.00;1.00;;;22.10;54.30;;;;;;8431274;28;20043;-54
2023/06/18 11:15:15;;;;;;;0.80;0.80;;;22.10;54.30;;;;;;8430926;28;20028;-54
2023/06/18 11:19:16;;;;;;;1.08;0.98;;;22.10;54.30;;;;;;8412748;28;20046;-54
2023/06/18 11:23:18;;;;;;;0.80;0.80;;;22.10;54.30;;;;;;8430755;28;20041;-54
2023/06/18 11:27:24;;;;;;;1.02;0.77;;;22.10;54.20;;;;;;8431581;27;20024;-54
2023/06/18 11:31:31;;;;;;;1.00;0.90;;;22.10;54.20;;;;;;8429127;28;20024;-55
2023/06/18 11:35:31;;;;;;;1.20;0.90;;;22.20;54.20;;;;;;8430631;28;20047;-54
2023/06/18 11:39:33;;;;;;;0.80;0.80;;;22.10;54.20;;;;;;8430398;28;20489;-55
2023/06/18 11:43:48;;;;;;;0.93;0.88;;;22.20;54.20;;;;;;8430056;28;20039;-55
2023/06/18 11:47:50;;;;;;;0.80;0.80;;;22.20;54.20;;;;;;8411918;28;20394;-55
2023/06/18 11:51:51;;;;;;;1.10;0.90;;;22.20;54.20;;;;;;8430037;28;20035;-55
2023/06/18 11:55:53;;;;;;;0.90;0.82;;;22.20;54.20;;;;;;8429914;28;20107;-55
2023/06/18 11:59:54;;;;;;;1.00;1.00;;;22.20;54.20;;;;;;8430532;27;20459;-55
2023/06/18 12:04:05;;;;;;;1.30;0.80;;;22.20;54.20;;;;;;8429794;28;20064;-54
2023/06/18 12:08:13;;;;;;;0.80;0.70;;;22.20;54.20;;;;;;8429269;28;20545;-54
2023/06/18 12:12:32;;;;;;;0.80;0.80;;;22.20;54.20;;;;;;8429195;28;20032;-55
2023/06/18 12:16:35;;;;;;;1.33;0.90;;;22.20;54.20;;;;;;8429273;28;20023;-55
2023/06/18 12:20:36;;;;;;;0.70;0.70;;;22.20;54.10;;;;;;8428952;28;20142;-55
2023/06/18 12:24:38;;;;;;;;;;;22.20;54.10;;;;;;8429455;28;20047;-55
2023/06/18 12:28:39;;;;;;;1.10;1.00;;;22.30;54.20;;;;;;8429496;28;19919;-55
2023/06/18 12:32:40;;;;;;;0.80;0.80;;;22.20;54.10;;;;;;8428873;28;20107;-55
2023/06/18 12:36:42;;;;;;;1.15;1.05;;;22.20;54.10;;;;;;8428946;28;20024;-55
2023/06/18 12:41:00;;;;;;;0.90;0.90;;;22.20;54.10;;;;;;8428230;28;20050;-55
2023/06/18 12:45:02;;;;;;;1.10;0.93;;;22.20;54.10;;;;;;8428099;28;20032;-55
2023/06/18 12:49:07;;;;;;;0.82;0.70;;;22.20;54.10;;;;;;8428145;28;20494;-55
2023/06/18 12:53:21;;;;;;;0.85;0.70;;;22.20;54.20;;;;;;8428069;28;20028;-54
2023/06/18 12:57:21;;;;;;;1.00;0.90;;;22.20;54.10;;;;;;8428811;27;20363;-55
2023/06/18 13:01:23;;;;;;;0.82;0.82;;;22.20;54.20;;;;;;8427895;28;20110;-55
2023/06/18 13:05:23;;;;;;;;;;;22.20;54.20;;;;;;8428010;28;20493;-55
2023/06/18 13:09:24;;;;;;;1.00;0.90;;;22.20;54.20;;;;;;8427637;28;20289;-54
2023/06/18 13:13:25;;;;;;;1.27;1.02;;;22.20;54.20;;;;;;8427449;28;20079;-55
2023/06/18 13:17:26;;;;;;;1.10;0.98;;;22.20;54.20;;;;;;8427445;28;20066;-55
2023/06/18 13:21:27;;;;;;;1.48;1.08;;;22.20;54.10;;;;;;8427323;28;20452;-55
2023/06/18 13:25:27;;;;;;;1.13;0.93;;;22.20;54.10;;;;;;8427126;28;20486;-54
2023/06/18 13:29:28;;;;;;;0.77;0.73;;;22.20;54.10;;;;;;8454273;28;20088;-55
2023/06/18 13:33:29;;;;;;;1.00;0.90;;;22.20;54.10;;;;;;8442765;28;20035;-55
2023/06/18 13:37:29;;;;;;;0.80;0.80;;;22.20;54.10;;;;;;8460479;28;20036;-55
2023/06/18 13:41:30;;;;;;;0.82;0.80;;;22.20;54.10;;;;;;8460859;28;20081;-55
2023/06/18 13:45:31;;;;;;;0.80;0.80;;;22.20;54.10;;;;;;8460498;28;20542;-55
2023/06/18 13:49:32;;;;;;;0.80;0.70;;;22.20;54.10;;;;;;8460656;28;20067;-55
2023/06/18 13:53:32;;;;;;;;;;;22.20;54.10;;;;;;8463234;28;20038;-55
2023/06/18 13:57:33;;;;;;;0.80;0.80;;;22.30;54.20;;;;;;8439686;28;19908;-55
2023/06/18 14:01:34;;;;;;;1.00;0.90;;;22.20;54.20;;;;;;8433572;28;20118;-55
2023/06/18 14:05:35;;;;;;;0.70;0.70;;;22.20;54.10;;;;;;8433548;28;20040;-55
2023/06/18 14:09:37;;;;;;;1.05;0.98;;;22.30;54.10;;;;;;8433068;28;20074;-55
2023/06/18 14:13:37;;;;;;;1.00;0.90;;;22.20;54.10;;;;;;8433093;28;20036;-55
2023/06/18 14:17:38;;;;;;;1.13;1.00;;;22.30;54.20;;;;;;8433255;28;20040;-55
2023/06/18 14:21:39;;;;;;;0.90;0.90;;;22.30;54.20;;;;;;8432963;28;20065;-55
2023/06/18 14:25:40;;;;;;;1.10;1.00;;;22.30;54.20;;;;;;8432682;28;20473;-55
2023/06/18 14:29:40;;;;;;;0.90;0.80;;;22.30;54.20;;;;;;8433500;27;20032;-55
2023/06/18 14:33:41;;;;;;;0.82;0.82;;;22.30;54.20;;;;;;8432464;28;20028;-54
2023/06/18 14:37:42;;;;;;;1.10;1.00;;;22.30;54.10;;;;;;8432432;28;20043;-55
2023/06/18 14:41:42;;;;;;;0.70;0.70;;;22.20;54.10;;;;;;8432227;28;20119;-55
2023/06/18 14:45:43;;;;;;;0.88;0.88;;;22.20;54.10;;;;;;8432142;28;20416;-55
2023/06/18 14:49:44;;;;;;;0.90;0.88;;;22.30;54.20;;;;;;8413916;28;20036;-54
2023/06/18 14:53:50;;;;;;;1.08;0.95;;;22.30;54.20;;;;;;8431995;28;20033;-55
2023/06/18 14:57:51;;;;;;;1.00;1.00;;;22.30;54.20;;;;;;8432641;27;20036;-54
2023/06/18 15:01:51;;;;;;;0.80;0.80;;;22.20;54.20;;;;;;8431576;28;20028;-55
2023/06/18 15:05:52;;;;;;;0.77;0.75;;;22.30;54.20;;;;;;8430968;28;20484;-54
2023/06/18 15:09:53;;;;;;;0.95;0.73;;;22.20;54.20;;;;;;8431421;28;20064;-54
2023/06/18 15:13:53;;;;;;;0.98;0.82;;;22.20;54.20;;;;;;8430976;28;20093;-55
2023/06/18 15:17:54;;;;;;;0.98;0.88;;;22.20;54.20;;;;;;8431308;28;20059;-55
2023/06/18 15:21:55;;;;;;;1.00;0.90;;;22.20;54.20;;;;;;8431003;28;20161;-54
2023/06/18 15:25:55;;;;;;;1.10;0.98;;;22.20;54.20;;;;;;8430707;28;20036;-55
2023/06/18 15:29:56;;;;;;;0.80;0.80;;;22.20;54.20;;;;;;8431543;28;20035;-55
2023/06/18 15:33:57;;;;;;;0.90;0.90;;;22.20;54.20;;;;;;8430648;28;20153;-54
2023/06/18 15:38:00;;;;;;;1.45;1.35;;;22.20;54.20;;;;;;8430317;28;20124;-54
2023/06/18 15:42:00;;;;;;;11.93;4.50;;;22.20;53.80;;;;;;8430487;28;20097;-54
2023/06/18 15:46:01;;;;;;;9.93;3.65;;;22.50;51.30;;;;;;8430032;28;20028;-53
2023/06/18 15:50:02;;;;;;;9.52;4.32;;;22.70;51.80;;;;;;8429904;28;20485;-54
2023/06/18 15:54:02;;;;;;;11.55;5.30;;;22.80;52.40;;;;;;8429982;28;20024;-53
2023/06/18 15:58:03;;;;;;;15.02;5.60;;;22.80;53.00;;;;;;8430793;27;20058;-53
2023/06/18 16:02:04;;;;;;;23.05;5.90;;;22.80;52.70;;;;;;8429616;28;20035;-53
2023/06/18 16:06:04;;;;;;;10.32;6.07;;;22.80;53.40;;;;;;8429526;28;20043;-53
2023/06/18 16:10:06;;;;;;;15.13;7.28;;;22.80;55.10;;;;;;8411425;28;20125;-53
2023/06/18 16:14:07;;;;;;;12.70;7.35;;;22.80;55.90;;;;;;8411110;28;20082;-53
2023/06/18 16:18:08;;;;;;;14.57;7.35;;;22.80;56.20;;;;;;8410519;28;20032;-53
2023/06/18 16:22:08;;;;;;;13.98;7.85;;;22.80;57.80;;;;;;8410825;28;20059;-53
2023/06/18 16:26:10;;;;;;;14.80;7.45;;;22.70;58.30;;;;;;8410599;28;20028;-52
2023/06/18 16:30:11;;;;;;;15.73;9.48;;;22.80;58.40;;;;;;8429547;27;20433;-52
2023/06/18 16:34:11;;;;;;;;;;;22.80;59.80;;;;;;8420991;28;20032;-52
2023/06/18 16:38:12;;;;;;;14.93;8.63;;;22.70;59.40;;;;;;8428613;28;19930;-53
2023/06/18 16:42:12;;;;;;;11.45;8.10;;;22.70;59.90;;;;;;8428641;28;20397;-52
2023/06/18 16:46:13;;;;;;;14.93;9.07;;;22.70;59.60;;;;;;8428122;28;20385;-53
2023/06/18 16:50:14;;;;;;;13.07;8.15;;;22.80;59.50;;;;;;8428026;28;20181;-53
2023/06/18 16:54:14;;;;;;;12.63;8.48;;;22.80;59.30;;;;;;8428208;28;20051;-53
2023/06/18 16:58:15;;;;;;;11.05;7.93;;;22.80;59.40;;;;;;8428733;27;20028;-53
2023/06/18 17:02:16;;;;;;;12.93;8.43;;;22.70;59.00;;;;;;8427132;28;20028;-53
2023/06/18 17:06:16;;;;;;;19.92;9.52;;;22.70;58.90;;;;;;8461804;28;20031;-53
2023/06/18 17:10:17;;;;;;;14.50;8.40;;;22.80;58.70;;;;;;8461138;28;20047;-53
2023/06/18 17:14:18;;;;;;;11.27;8.05;;;22.80;58.50;;;;;;8461204;28;20059;-53
2023/06/18 17:18:18;;;;;;;12.50;8.65;;;22.80;58.30;;;;;;8461120;28;20510;-52
2023/06/18 17:22:19;;;;;;;18.42;9.65;;;22.80;58.60;;;;;;8461157;28;20036;-54
2023/06/18 17:26:20;;;;;;;15.38;8.45;;;22.80;58.70;;;;;;8460215;28;20035;-53
2023/06/18 17:30:21;;;;;;;16.95;8.65;;;22.80;58.40;;;;;;8426752;28;20106;-53
2023/06/18 17:34:22;;;;;;;;;;;22.80;58.70;;;;;;8427592;28;20028;-53
2023/06/18 17:38:22;;;;;;;13.63;8.48;;;22.80;58.30;;;;;;8427000;28;19995;-53
2023/06/18 17:42:23;;;;;;;15.15;8.73;;;22.80;58.20;;;;;;8426882;28;20028;-53
2023/06/18 17:46:24;;;;;;;16.23;8.82;;;22.80;58.10;;;;;;8408694;28;20107;-53
2023/06/18 17:50:24;;;;;;;16.33;7.78;;;22.80;57.90;;;;;;8426663;28;20039;-54
2023/06/18 17:54:25;;;;;;;21.48;9.25;;;22.90;58.10;;;;;;8426826;28;20024;-54
2023/06/18 17:58:25;;;;;;;16.17;9.07;;;22.90;59.70;;;;;;8445740;28;20067;-54
2023/06/18 18:02:26;;;;;;;15.80;8.80;;;22.90;60.30;;;;;;8456923;28;20027;-54
2023/06/18 18:06:27;;;;;;;15.25;9.05;;;22.90;60.60;;;;;;8459268;28;20485;-53
2023/06/18 18:10:28;;;;;;;13.73;8.80;;;22.90;59.70;;;;;;8431184;28;20036;-54
2023/06/18 18:14:28;;;;;;;12.45;9.07;;;22.90;60.20;;;;;;8426309;28;20028;-54
2023/06/18 18:18:29;;;;;;;18.02;8.95;;;23.00;59.80;;;;;;8427145;28;20154;-54
2023/06/18 18:22:29;;;;;;;15.40;8.73;;;23.00;60.20;;;;;;8453917;28;20064;-54
2023/06/18 18:26:31;;;;;;;19.65;9.15;;;23.00;59.10;;;;;;8424952;28;20048;-54
2023/06/18 18:30:31;;;;;;;16.42;8.10;;;23.00;59.30;;;;;;8425937;28;20421;-54
2023/06/18 18:34:32;;;;;;;13.73;8.50;;;23.10;59.00;;;;;;8425734;28;21095;-57
2023/06/18 18:38:33;;;;;;;11.68;8.55;;;23.10;58.60;;;;;;8426346;28;20043;-56
2023/06/18 18:42:34;;;;;;;12.48;8.90;;;23.20;58.30;;;;;;8431132;27;20060;-54
2023/06/18 18:46:34;;;;;;;12.02;7.90;;;23.20;58.60;;;;;;8432625;28;20038;-55
2023/06/18 18:50:35;;;;;;;14.38;8.90;;;23.20;58.40;;;;;;8432386;28;20034;-55
2023/06/18 18:54:36;;;;;;;13.07;7.97;;;23.10;59.00;;;;;;8432121;28;20027;-55
2023/06/18 18:58:37;;;;;;;17.08;8.63;;;23.10;59.10;;;;;;8430515;28;20082;-55
2023/06/18 19:02:38;;;;;;;14.63;8.73;;;23.10;59.30;;;;;;8414379;28;20449;-55
2023/06/18 19:06:38;;;;;;;9.70;8.15;;;23.00;59.20;;;;;;8430493;28;20052;-55
2023/06/18 19:10:39;;;;;;;13.02;8.30;;;23.00;59.30;;;;;;8430805;28;21105;-55
2023/06/18 19:14:40;;;;;;;15.88;8.75;;;23.10;59.30;;;;;;8411660;28;20047;-55
2023/06/18 19:18:42;;;;;;;;;;;23.10;59.30;;;;;;8430865;28;20040;-54
2023/06/18 19:22:43;;;;;;;13.80;7.40;;;23.00;59.20;;;;;;8431522;28;19947;-55
2023/06/18 19:26:44;;;;;;;14.48;7.65;;;23.10;59.00;;;;;;8429878;28;20035;-55
2023/06/18 19:30:44;;;;;;;16.25;8.80;;;23.10;59.10;;;;;;8430906;27;20036;-54
2023/06/18 19:34:45;;;;;;;15.95;8.65;;;23.10;59.20;;;;;;8430657;28;20506;-53
2023/06/18 19:38:47;;;;;;;11.90;7.28;;;23.10;59.10;;;;;;8428151;28;20050;-55
2023/06/18 19:42:48;;;;;;;12.65;7.43;;;23.10;59.10;;;;;;8429333;28;20056;-55
2023/06/18 19:46:48;;;;;;;;;;;23.10;58.80;;;;;;8430030;27;20118;-54
2023/06/18 19:50:50;;;;;;;11.37;7.77;;;23.10;58.90;;;;;;8427612;28;19919;-55
2023/06/18 19:54:50;;;;;;;17.10;7.65;;;23.10;59.00;;;;;;8428837;28;20040;-55
2023/06/18 19:58:51;;;;;;;14.50;7.85;;;23.10;58.90;;;;;;8410637;28;20040;-55
2023/06/18 20:02:52;;;;;;;16.77;7.35;;;23.00;58.90;;;;;;8428913;28;20097;-55
2023/06/18 20:06:53;;;;;;;18.75;7.40;;;23.10;58.90;;;;;;8409317;28;20048;-55
2023/06/18 20:10:53;;;;;;;15.00;6.70;;;23.10;58.90;;;;;;8429724;28;20420;-54
2023/06/18 20:14:54;;;;;;;8.35;6.75;;;23.10;59.00;;;;;;8427217;28;20054;-53
2023/06/18 20:18:55;;;;;;;11.88;7.05;;;23.10;58.90;;;;;;8412808;28;20058;-54
2023/06/18 20:22:56;;;;;;;;;;;23.10;59.00;;;;;;8427435;28;20035;-54
2023/06/18 20:26:56;;;;;;;12.37;7.13;;;23.10;59.10;;;;;;8430801;28;20014;-54
2023/06/18 20:30:57;;;;;;;8.98;6.28;;;23.10;59.00;;;;;;8427181;28;20052;-54
2023/06/18 20:35:00;;;;;;;9.65;6.85;;;23.10;58.80;;;;;;8426887;28;20121;-53
2023/06/18 20:39:00;;;;;;;11.93;7.65;;;23.10;58.80;;;;;;8429159;28;20043;-57
2023/06/18 20:43:01;;;;;;;11.48;6.90;;;23.10;58.90;;;;;;8410662;28;20027;-54
2023/06/18 20:47:02;;;;;;;8.60;6.32;;;23.10;58.80;;;;;;8426974;28;20497;-55
2023/06/18 20:51:03;;;;;;;15.65;7.35;;;23.10;58.80;;;;;;8408116;28;20477;-55
2023/06/18 20:55:06;;;;;;;13.57;6.45;;;23.10;58.70;;;;;;8426017;28;20113;-53
2023/06/18 20:59:06;;;;;;;17.02;7.75;;;23.20;58.70;;;;;;8427935;28;20100;-54